Select your language:
Online Marketing Agentur sucht Gipfelstürmer   Bad Gastein Ultraks   18th Kalahari Augrabies Extreme Marathon  
  AK:   Land:   Ø Geschw.:   AK-Wertung:   
Datum: 17.-18.11.2012 Send Link
Veranstaltung: The Chimera 100 Mile Mountain Race (USA) Mehr Details zum Lauf.
Strecke: 100mi Landschaftslauf/Trail Ewige Bestenliste dieser Veranstaltung.
Finisher: 76 (60 M, 16 W) Mehrfach-Finisher.
Bestenlisten-tauglich: Nein
Ergebnisliste von: Link (Quelle zum Zeitpunkt der Erfassung.)
Erfassung durch: Andreas Knop     27.11.2012 16:57
 
76 Suchergebnisse
Gesamt- Rang Leistung Originalname
Nachname, Vorname
Verein Nat. Jg. M/W Rang M/W AK AK Rang Ø Geschw. km/h alters- korrigierte Leistung
1 16:52:08 h   Hardel, Fabrice *San Diego, CA, USA   FRA  1973 M 1 M35  1 9.540 16:35:39 h
2 17:30:13 h   Meltzer, Karl *Sandy, UT   USA  1967 M 2 M40  1 9.194 16:30:09 h
3 18:03:42 h   Carson, Michael *Tempe, AZ   USA  1986 M 3 M23  1 8.910 18:03:42 h
4 19:16:06 h   Adame, Damien *Chino, CA   USA  1977 M 4 M23  2 8.352 19:12:59 h
5 20:09:21 h   Ihara, Tomokazu (井原知一) *Kawasaki   JPN  1977 M 5 M23  3 7.985 20:06:06 h
6 20:33:00 h   Zemach, Ken *Menlo Park, CA   USA  1969 M 6 M40  2 7.831 19:41:43 h
7 21:17:51 h   Edell, Matthew *San Diego, CA   USA  1980 M 7 M23  4 7.556 21:17:51 h
8 21:28:51 h   Sweeney, Patrick   USA  1979 M 8 M23  5 7.492 21:27:26 h
9 21:44:54 h   Bon, Suzanna *Sonoma, CA   USA  1964 W 1 W45  1 7.400 19:36:30 h
10 22:10:47 h   Warren, Bryce *Ogden, UT   USA  1971 M 9 M40  3 7.256 21:34:12 h
11 22:15:16 h   Whited, Robert *Riverside, CA   USA  1965 M 10 M45  1 7.232 20:38:12 h
12 22:33:36 h   Ellefsen, Eli *San Diego, CA   USA  1971 M 11 M40  4 7.134 21:56:23 h
13 22:45:54 h   Johnson, Cory *Ogden, CA   USA  1964 M 12 M45  2 7.069 20:55:57 h
14 22:47:43 h   Siebert, Matthew *Oakland, CA   USA  1980 M 13 M23  6 7.060 22:47:43 h
15 22:48:01 h   Kovacevic, Andrew *San Diego, CA   USA  1966 M 14 M45  3 7.058 21:19:06 h
16 23:23:03 h   Bonilla, Eric *Walnut, CA   USA  1967 M 15 M40  5 6.882 22:02:48 h
17 23:34:09 h   Snyder, Erik *Costa Mesa, CA   USA  1980 M 16 M23  7 6.828 23:34:09 h
18 23:38:24 h   Marciari, John *San Diego, CA   USA  1971 M 17 M40  6 6.808 22:59:24 h
19 24:30:45 h   Guerra, Tiffany *Los Angeles, CA   USA  1976 W 2 W35  1 6.565 24:19:52 h
20 24:30:45 h   Howland, Marshall *Los Angeles, CA   USA  1978 M 18 M23  8 6.565 24:29:08 h
21 25:12:28 h   Bosworth, Samuel *Encinitas, CA   USA  1977 M 19 M23  9 6.384 25:08:23 h
22 25:15:45 h   Jenkins, Donovan *Los Angeles, CA   USA  1982 M 20 M23  10 6.370 25:15:45 h
23 25:20:31 h   Fry, Steve *Riverside, CA   USA  1958 M 21 M50  1 6.351 22:07:07 h
24 25:37:35 h   Valentin, Sylvere *Los Angeles, CA   USA  1977 M 22 M23  11 6.280 25:33:26 h
25 25:54:15 h   Ginsburg, Jeri *San Diego, CA   USA  1958 W 3 W50  1 6.213 21:55:50 h
26 25:54:15 h   Ramer, Andi *San Diego, CA   USA  1973 W 4 W35  2 6.213 25:24:25 h
27 25:56:55 h   Overbaugh, Jason *Atlanta, GA   USA  1974 M 23 M35  2 6.202 25:38:33 h
28 26:04:10 h   Kohr, Aaron *San Francisco, CA   USA  1964 M 24 M45  4 6.173 23:58:16 h
29 26:05:40 h   Sharp, Tyler *Kailua, HI   USA  1987 M 25 M23  12 6.167 26:05:40 h
30 26:11:14 h   Ferrara, Nicholas *Doylestown, PA   USA  1972 M 26 M35  3 6.146 25:37:18 h
31 26:13:38 h   Ramirez, Gabriel *Visalia, CA   USA  1974 M 27 M35  4 6.136 25:55:04 h
32 27:19:28 h   Brabeck, Matthew *Aliso Viejo, CA   USA  1975 M 28 M35  5 5.890 27:06:22 h
33 27:31:57 h   Francisco, Cris *Laguna Hills, CA   USA  1978 M 29 M23  13 5.845 27:30:08 h
34 27:45:17 h   Dickerson, Alexa *Irvine, CA   USA  1987 W 5 W23  1 5.798 27:45:17 h
35 28:15:20 h   Hockett, John *Corona, CA   USA  1967 M 30 M40  7 5.696 26:38:22 h
36 28:21:24 h   Reinbolt, Russ *La Jolla, CA   USA  1965 M 31 M45  5 5.675 26:17:43 h
37 28:25:59 h   Figueroa, Armando *Visalia, CA   USA  1955 M 32 M55  1 5.660 24:09:14 h
38 28:31:18 h   Ettinghausen, Ed *Wildomar, CA   USA  1962 M 33 M50  2 5.643 25:33:30 h
39 28:31:18 h   Bussell, Andy *Whittier, CA   USA  1980 M 34 M23  14 5.643 28:31:18 h
40 28:33:44 h   Duffy, Sarah *Anchorage, AK   USA  1970 W 6 W40  1 5.635 27:31:11 h
41 28:40:24 h   Bearden, Rick *Calimesa, CA   USA  1957 M 35 M50  3 5.613 24:48:09 h
42 28:49:21 h   Quick, Geoff *Pleasanton, CA   USA  1963 M 36 M45  6 5.584 26:16:39 h
43 28:54:56 h   Flores, Balmore *Winnetka, CA   USA  1971 M 37 M40  8 5.566 28:07:14 h
44 29:13:28 h   Martinez, Pedro *Van Nuys, CA   USA  1986 M 38 M23  15 5.507 29:13:28 h
45 29:20:19 h   Andersen, Ashley *Placentia, CA   USA  1983 W 7 W23  2 5.485 29:20:19 h
46 29:23:35 h   Dozier, Kent *San Jose, CA   USA  1975 M 39 M35  6 5.475 29:02:47 h
47 29:28:09 h   Singleton, Alan *Lake Balboa, CA   USA  1965 M 40 M45  7 5.461 27:19:37 h
48 29:28:10 h   Westaway, Timothy *Sarnia, ON   CAN  1955 M 41 M55  2 5.461 24:48:16 h
49 29:37:23 h   Brickweg, Brittany *Aliso Viejo, CA   USA  1983 W 8 W23  3 5.433 29:37:23 h
50 29:53:45 h   Koester, John *San Jose, CA   USA  1949 M 42 M60  1 5.383 24:00:02 h
51 29:56:09 h   Sheridan, Melinda *Morgan, UT   USA  1973 W 9 W35  3 5.376 29:21:40 h
52 30:27:38 h   Dewees, Linda *Inyokern, CA   USA  1956 W 10 W55  1 5.283 24:46:58 h
53 30:30:34 h   Foote, Geoffrey *Chandler, AZ   USA  1968 M 43 M40  9 5.275 29:00:09 h
54 30:30:50 h   Harris, Stephen *Harbor City, CA   USA  1954 M 44 M55  3 5.274 25:41:01 h
55 30:33:46 h   Bullis, Grant *Newport Beach, CA   USA  1965 M 45 M45  8 5.266 28:20:28 h
56 30:40:50 h   Peterson, Steven *Lake Elsinore, CA   USA  1968 M 46 M40  10 5.245 29:09:54 h
57 30:49:11 h   Cheng, Jack *Temple City, CA   USA  1971 M 47 M40  11 5.222 29:58:20 h
58 30:49:11 h   Gaetos, Benjamin *Los Angeles, CA   PHI  1957 M 48 M50  4 5.222 26:39:33 h
59 30:49:11 h   Liu, Wilson *Arcadia, CA   USA  1957 M 49 M50  5 5.222 26:39:33 h
60 30:51:04 h   Weir, Melanie *Orange, CA   USA  1964 W 11 W45  2 5.216 28:08:33 h
61 30:59:16 h   Priedkalns, Erik *Santa Monica, CA   USA  1971 M 50 M40  12 5.193 30:08:09 h
62 31:17:48 h   Hamrick, Ruthanne *Cedar Crest, NM   USA  1965 W 12 W45  3 5.142 28:51:54 h
63 31:24:28 h   Goss, John *Santa Ana, CA   USA  1982 M 51 M23  16 5.124 31:24:28 h
64 31:27:06 h   McAlister, Jason *Tustin, CA   USA  1979 M 52 M23  17 5.117 31:26:44 h
65 31:39:07 h   Arnold, John *Murrieta, CA   USA  1961 M 53 M50  6 5.085 28:21:48 h
66 31:52:31 h   Rodriguez, Vanessa *San Diego, CA   USA  1982 W 13 W23  4 5.049 31:52:31 h
67 32:04:15 h   Frias, Carlos *Escondido, CA   USA  1985 M 54 M23  18 5.018 32:04:15 h
68 32:06:03 h   Hayes, Ryan *San Diego, CA   USA  1975 M 55 M35  7 5.013 31:50:39 h
69 32:10:04 h   Eynon, Brian *Murrieta, CA   USA  1970 M 56 M40  13 5.003 31:04:04 h
70 32:16:38 h   Kuerten, Thomas *Hermosa Beach, CA   USA  1966 M 57 M45  9 4.986 30:10:46 h
71 32:31:57 h   Clark, Breein *Farr West, UT   USA  1976 W 14 W35  4 4.947 32:17:31 h
72 32:54:15 h   Gillis, Kristine *Temecula, CA   USA  1975 W 15 W35  5 4.891 32:33:08 h
73 33:00:11 h   Santillan, Julia *Imperial Beach, CA   USA  1982 W 16 W23  5 4.876 33:00:11 h
74 33:15:45 h   Ricks, Christopher *Idaho Falls, ID   USA  1982 M 58 M23  19 4.838 33:15:45 h
75 33:15:46 h   Ross, Chris *Rancho Bernardo, CA   USA  1980 M 59 M23  20 4.838 33:15:46 h
76 34:29:42 h   Tolosa, Randall *Palm Springs, CA   USA  1986 M 60 M23  21 4.665 34:29:42 h